Time;durP1;ratioP1;P1;durP2;ratioP2;P2;SDS_P1;SDS_P2;PMS_P1;PMS_P2;Temp;Humidity;BMP_temperature;BMP_pressure;BME280_temperature;BME280_humidity;BME280_pressure;Samples;Min_cycle;Max_cycle;Signal;HPM_P1;HPM_P2
2023/09/28 00:01:59;;;;;;;0.75;0.75;;;17.70;99.90;;;;;;5114769;28;20038;-75
2023/09/28 00:04:25;;;;;;;0.43;0.43;;;17.70;99.90;;;;;;5115568;28;20040;-74
2023/09/28 00:06:51;;;;;;;0.40;0.40;;;17.70;99.90;;;;;;5115580;28;20080;-76
2023/09/28 00:09:17;;;;;;;0.55;0.55;;;17.70;99.90;;;;;;5115422;28;20054;-73
2023/09/28 00:11:44;;;;;;;0.30;0.30;;;17.60;99.90;;;;;;5115618;28;20043;-75
2023/09/28 00:14:10;;;;;;;0.47;0.47;;;17.60;99.90;;;;;;5115609;28;20055;-75
2023/09/28 00:16:36;;;;;;;0.30;0.30;;;17.60;99.90;;;;;;5115696;28;20031;-74
2023/09/28 00:19:02;;;;;;;0.40;0.40;;;17.60;99.90;;;;;;5115540;27;20038;-73
2023/09/28 00:21:28;;;;;;;0.30;0.30;;;17.60;99.90;;;;;;5115781;28;20409;-74
2023/09/28 00:23:54;;;;;;;1.00;0.73;;;17.60;99.90;;;;;;5115577;28;20386;-75
2023/09/28 00:26:19;;;;;;;0.40;0.40;;;17.60;99.90;;;;;;5115730;28;20040;-74
2023/09/28 00:28:45;;;;;;;0.63;0.60;;;17.60;99.90;;;;;;5115679;28;20116;-75
2023/09/28 00:31:11;;;;;;;0.40;0.40;;;17.60;99.90;;;;;;5115323;28;20032;-76
2023/09/28 00:33:37;;;;;;;1.57;0.60;;;17.50;99.90;;;;;;5114956;28;20036;-74
2023/09/28 00:36:03;;;;;;;0.67;0.60;;;17.50;99.90;;;;;;5115357;28;20126;-74
2023/09/28 00:38:28;;;;;;;0.50;0.50;;;17.50;99.90;;;;;;5115521;28;20035;-73
2023/09/28 00:40:54;;;;;;;1.03;0.60;;;17.50;99.90;;;;;;5115221;28;20104;-76
2023/09/28 00:43:27;;;;;;;0.60;0.60;;;17.50;99.90;;;;;;5114913;28;20035;-75
2023/09/28 00:45:52;;;;;;;0.40;0.40;;;17.50;99.90;;;;;;5115139;28;20050;-76
2023/09/28 00:48:18;;;;;;;0.30;0.30;;;17.50;99.90;;;;;;5114947;28;20040;-76
2023/09/28 00:50:46;;;;;;;0.70;0.70;;;17.50;99.90;;;;;;5113766;28;20569;-74
2023/09/28 00:53:13;;;;;;;0.70;0.70;;;17.50;99.90;;;;;;5114715;28;20531;-74
2023/09/28 00:55:39;;;;;;;0.40;0.40;;;17.50;99.90;;;;;;5114906;28;20046;-75
2023/09/28 00:58:05;;;;;;;;;;;17.50;99.90;;;;;;5115554;28;20036;-74
2023/09/28 01:00:34;;;;;;;0.38;0.38;;;17.50;99.90;;;;;;5114780;28;19922;-75
2023/09/28 01:03:05;;;;;;;0.40;0.40;;;17.50;99.90;;;;;;5113421;28;20040;-75
2023/09/28 01:05:39;;;;;;;0.60;0.50;;;17.50;99.90;;;;;;5114755;28;20080;-74
2023/09/28 01:08:11;;;;;;;0.55;0.55;;;17.40;99.90;;;;;;5115157;28;20164;-76
2023/09/28 01:10:38;;;;;;;0.50;0.50;;;17.40;99.90;;;;;;5114496;28;20094;-74
2023/09/28 01:13:11;;;;;;;0.40;0.40;;;17.40;99.90;;;;;;5114471;28;20027;-75
2023/09/28 01:15:41;;;;;;;0.50;0.50;;;17.40;99.90;;;;;;5114513;28;20073;-76
2023/09/28 01:18:10;;;;;;;0.50;0.40;;;17.40;99.90;;;;;;5114275;28;20043;-75
2023/09/28 01:20:37;;;;;;;0.35;0.35;;;17.40;99.90;;;;;;5114738;28;20122;-74
2023/09/28 01:23:06;;;;;;;0.30;0.30;;;17.40;99.90;;;;;;5114365;28;20132;-75
2023/09/28 01:25:33;;;;;;;0.73;0.50;;;17.40;99.90;;;;;;5114418;28;20127;-75
2023/09/28 01:27:59;;;;;;;1.00;0.73;;;17.40;99.90;;;;;;5114267;28;20039;-76
2023/09/28 01:30:25;;;;;;;0.85;0.50;;;17.40;99.90;;;;;;5114381;28;20047;-74
2023/09/28 01:32:52;;;;;;;0.87;0.87;;;17.40;99.90;;;;;;5114586;28;20454;-73
2023/09/28 01:35:18;;;;;;;0.40;0.40;;;17.40;99.90;;;;;;5114669;27;20085;-74
2023/09/28 01:38:05;;;;;;;0.30;0.30;;;17.40;99.90;;;;;;5113027;28;20463;-77
2023/09/28 01:40:31;;;;;;;0.52;0.40;;;17.40;99.90;;;;;;5114093;28;20043;-75
2023/09/28 01:42:57;;;;;;;0.30;0.30;;;17.40;99.90;;;;;;5114185;28;20160;-75
2023/09/28 01:45:23;;;;;;;1.47;0.60;;;17.40;99.90;;;;;;5113958;28;20118;-76
2023/09/28 01:47:49;;;;;;;0.60;0.60;;;17.40;99.90;;;;;;5114339;28;20036;-76
2023/09/28 01:50:14;;;;;;;0.60;0.60;;;17.40;99.90;;;;;;5114095;28;20039;-74
2023/09/28 01:52:40;;;;;;;0.40;0.40;;;17.40;99.90;;;;;;5114024;28;20473;-76
2023/09/28 01:55:06;;;;;;;0.60;0.60;;;17.40;99.90;;;;;;5113921;28;20035;-75
2023/09/28 01:57:31;;;;;;;0.50;0.50;;;17.40;99.90;;;;;;5113632;28;20077;-76
2023/09/28 02:00:00;;;;;;;0.33;0.33;;;17.40;99.90;;;;;;5113980;28;20043;-74
2023/09/28 02:02:29;;;;;;;0.35;0.32;;;17.40;99.90;;;;;;5114221;28;20386;-75
2023/09/28 02:04:54;;;;;;;2.38;0.43;;;17.40;99.90;;;;;;5113814;28;20036;-75
2023/09/28 02:07:20;;;;;;;0.40;0.40;;;17.40;99.90;;;;;;5113620;28;20062;-73
2023/09/28 02:09:46;;;;;;;0.57;0.40;;;17.40;99.90;;;;;;5113833;28;20078;-76
2023/09/28 02:12:12;;;;;;;0.30;0.30;;;17.40;99.90;;;;;;5113769;28;20414;-76
2023/09/28 02:14:38;;;;;;;0.30;0.30;;;17.40;99.90;;;;;;5114213;28;20036;-75
2023/09/28 02:17:04;;;;;;;1.00;0.63;;;17.40;99.90;;;;;;5113619;28;20077;-72
2023/09/28 02:19:32;;;;;;;0.30;0.30;;;17.40;99.90;;;;;;5113833;28;20131;-75
2023/09/28 02:21:58;;;;;;;1.43;0.70;;;17.40;99.90;;;;;;5113897;28;20071;-74
2023/09/28 02:24:24;;;;;;;0.40;0.40;;;17.40;99.90;;;;;;5113869;28;20039;-75
2023/09/28 02:26:52;;;;;;;0.60;0.50;;;17.30;99.90;;;;;;5113744;28;21074;-76
2023/09/28 02:29:17;;;;;;;0.30;0.30;;;17.30;99.90;;;;;;5114819;28;20074;-73
2023/09/28 02:31:43;;;;;;;0.63;0.40;;;17.30;99.90;;;;;;5118034;28;20100;-73
2023/09/28 02:34:09;;;;;;;0.87;0.87;;;17.30;99.90;;;;;;5117750;28;20463;-74
2023/09/28 02:36:38;;;;;;;0.50;0.50;;;17.30;99.90;;;;;;5117656;28;20036;-74
2023/09/28 02:39:05;;;;;;;0.90;0.68;;;17.30;99.90;;;;;;5116387;28;20035;-73
2023/09/28 02:41:31;;;;;;;0.40;0.40;;;17.20;99.90;;;;;;5117821;28;20031;-74
2023/09/28 02:43:56;;;;;;;0.30;0.30;;;17.20;99.90;;;;;;5117692;28;20040;-76
2023/09/28 02:46:24;;;;;;;0.50;0.50;;;17.20;99.90;;;;;;5117444;28;20031;-73
2023/09/28 02:48:50;;;;;;;0.45;0.45;;;17.20;99.90;;;;;;5117352;28;20039;-76
2023/09/28 02:51:17;;;;;;;0.32;0.32;;;17.10;99.90;;;;;;5116339;28;20036;-75
2023/09/28 02:53:43;;;;;;;0.50;0.50;;;17.10;99.90;;;;;;5117099;27;20109;-74
2023/09/28 02:56:08;;;;;;;0.63;0.63;;;17.10;99.90;;;;;;5117146;28;20493;-75
2023/09/28 02:58:34;;;;;;;0.43;0.30;;;17.00;99.90;;;;;;5117488;28;20039;-73
2023/09/28 03:01:01;;;;;;;0.50;0.50;;;17.00;99.90;;;;;;5117113;28;20462;-75
2023/09/28 03:03:26;;;;;;;0.50;0.50;;;17.00;99.90;;;;;;5117137;28;20042;-74
2023/09/28 03:05:55;;;;;;;0.70;0.50;;;17.00;99.90;;;;;;5117140;28;20031;-74
2023/09/28 03:08:21;;;;;;;0.73;0.50;;;16.90;99.90;;;;;;5116994;28;20039;-74
2023/09/28 03:10:47;;;;;;;0.30;0.30;;;16.90;99.90;;;;;;5116795;28;20032;-74
2023/09/28 03:13:13;;;;;;;0.47;0.47;;;16.90;99.90;;;;;;5116907;28;20041;-74
2023/09/28 03:15:43;;;;;;;0.40;0.40;;;16.80;99.90;;;;;;5117125;28;20036;-76
2023/09/28 03:18:13;;;;;;;0.32;0.32;;;16.80;99.90;;;;;;5116999;28;20039;-75
2023/09/28 03:20:41;;;;;;;0.63;0.63;;;16.80;99.90;;;;;;5115589;28;20046;-74
2023/09/28 03:23:08;;;;;;;0.40;0.40;;;16.80;99.90;;;;;;5116696;28;20065;-75
2023/09/28 03:25:34;;;;;;;0.67;0.57;;;16.70;99.90;;;;;;5116873;28;20451;-76
2023/09/28 03:28:00;;;;;;;0.40;0.40;;;16.70;99.90;;;;;;5116995;28;20043;-74
2023/09/28 03:30:26;;;;;;;0.73;0.40;;;16.70;99.90;;;;;;5116730;28;20382;-75
2023/09/28 03:32:53;;;;;;;0.43;0.43;;;16.70;99.90;;;;;;5115277;28;20028;-74
2023/09/28 03:35:18;;;;;;;;;;;16.60;99.90;;;;;;5117213;28;20039;-74
2023/09/28 03:37:45;;;;;;;0.95;0.73;;;16.60;99.90;;;;;;5116433;28;19924;-75
2023/09/28 03:40:12;;;;;;;;;;;16.60;99.90;;;;;;5116861;28;20031;-75
2023/09/28 03:42:42;;;;;;;0.60;0.60;;;16.60;99.90;;;;;;5116526;28;19916;-74
2023/09/28 03:45:20;;;;;;;0.50;0.50;;;16.60;99.90;;;;;;5116388;27;20045;-74
2023/09/28 03:47:49;;;;;;;0.40;0.40;;;16.60;99.90;;;;;;5115027;28;20031;-75
2023/09/28 03:50:15;;;;;;;0.47;0.47;;;16.50;99.90;;;;;;5116190;28;20122;-74
2023/09/28 03:52:42;;;;;;;0.50;0.50;;;16.50;99.90;;;;;;5116532;28;20419;-75
2023/09/28 03:55:15;;;;;;;0.50;0.50;;;16.50;99.90;;;;;;5116106;28;20036;-75
2023/09/28 03:57:44;;;;;;;0.40;0.40;;;16.40;99.90;;;;;;5116224;28;20105;-75
2023/09/28 04:00:13;;;;;;;0.40;0.40;;;16.40;99.90;;;;;;5116226;27;20047;-75
2023/09/28 04:02:44;;;;;;;0.40;0.40;;;16.30;99.90;;;;;;5116009;28;20040;-77
2023/09/28 04:05:11;;;;;;;0.43;0.40;;;16.30;99.90;;;;;;5114976;28;20043;-75
2023/09/28 04:07:38;;;;;;;0.30;0.30;;;16.20;99.90;;;;;;5115936;28;20044;-74
2023/09/28 04:10:05;;;;;;;0.65;0.65;;;16.20;99.90;;;;;;5115946;27;20066;-75
2023/09/28 04:12:30;;;;;;;0.40;0.40;;;16.20;99.90;;;;;;5115579;28;20127;-77
2023/09/28 04:14:56;;;;;;;0.40;0.40;;;16.10;99.90;;;;;;5116037;28;20118;-75
2023/09/28 04:17:22;;;;;;;0.50;0.50;;;16.10;99.90;;;;;;5115700;28;20463;-74
2023/09/28 04:19:48;;;;;;;0.37;0.37;;;16.10;99.90;;;;;;5115939;28;20051;-74
2023/09/28 04:22:14;;;;;;;0.60;0.50;;;16.00;99.90;;;;;;5115722;28;20035;-75
2023/09/28 04:24:40;;;;;;;1.17;0.40;;;16.00;99.90;;;;;;5115539;28;20505;-75
2023/09/28 04:27:08;;;;;;;0.30;0.30;;;16.00;99.90;;;;;;5115615;28;20036;-74
2023/09/28 04:29:34;;;;;;;0.30;0.30;;;15.90;99.90;;;;;;5115472;28;20043;-73
2023/09/28 04:31:59;;;;;;;0.65;0.60;;;15.90;99.90;;;;;;5115341;28;20042;-75
2023/09/28 04:34:25;;;;;;;0.63;0.63;;;15.90;99.90;;;;;;5115869;28;20043;-73
2023/09/28 04:36:51;;;;;;;0.30;0.30;;;15.80;99.90;;;;;;5115784;28;20375;-73
2023/09/28 04:39:17;;;;;;;0.40;0.40;;;15.80;99.90;;;;;;5115285;28;20483;-75
2023/09/28 04:41:43;;;;;;;0.53;0.53;;;15.80;99.90;;;;;;5114257;28;20379;-74
2023/09/28 04:44:09;;;;;;;0.45;0.43;;;15.80;99.90;;;;;;5115093;27;20289;-74
2023/09/28 04:46:36;;;;;;;0.40;0.40;;;15.80;99.90;;;;;;5115028;28;20039;-75
2023/09/28 04:49:02;;;;;;;0.30;0.30;;;15.80;99.90;;;;;;5115017;28;20127;-77
2023/09/28 04:51:29;;;;;;;0.40;0.40;;;15.80;99.90;;;;;;5114492;28;20031;-74
2023/09/28 04:53:55;;;;;;;0.40;0.40;;;15.80;99.90;;;;;;5114852;28;20441;-74
2023/09/28 04:56:21;;;;;;;0.70;0.30;;;15.80;99.90;;;;;;5114765;28;20043;-74
2023/09/28 04:58:46;;;;;;;0.33;0.33;;;15.80;99.90;;;;;;5114852;28;20277;-74
2023/09/28 05:01:12;;;;;;;0.80;0.50;;;15.80;99.90;;;;;;5114807;28;20047;-73
2023/09/28 05:03:38;;;;;;;0.53;0.53;;;15.80;99.90;;;;;;5114467;28;20383;-73
2023/09/28 05:06:05;;;;;;;0.50;0.50;;;15.80;99.90;;;;;;5114656;28;20145;-73
2023/09/28 05:08:31;;;;;;;0.38;0.38;;;15.80;99.90;;;;;;5114572;28;20064;-74
2023/09/28 05:10:57;;;;;;;0.63;0.63;;;15.80;99.90;;;;;;5114602;28;20043;-75
2023/09/28 05:13:29;;;;;;;0.50;0.50;;;15.80;99.90;;;;;;5114561;28;20044;-75
2023/09/28 05:15:55;;;;;;;0.60;0.50;;;15.80;99.90;;;;;;5114573;28;20062;-75
2023/09/28 05:18:21;;;;;;;0.40;0.40;;;15.80;99.90;;;;;;5114432;28;20470;-75
2023/09/28 05:20:46;;;;;;;0.47;0.43;;;15.80;99.90;;;;;;5113404;28;20089;-74
2023/09/28 05:23:12;;;;;;;1.17;0.67;;;15.80;99.90;;;;;;5114434;28;20078;-73
2023/09/28 05:25:37;;;;;;;0.57;0.53;;;15.80;99.90;;;;;;5114286;28;20039;-74
2023/09/28 05:28:04;;;;;;;0.40;0.40;;;15.80;99.90;;;;;;5113102;28;20039;-74
2023/09/28 05:30:30;;;;;;;0.32;0.32;;;15.80;99.90;;;;;;5114228;28;20036;-76
2023/09/28 05:32:58;;;;;;;0.50;0.50;;;15.80;99.90;;;;;;5114264;28;20041;-75
2023/09/28 05:35:24;;;;;;;0.50;0.50;;;15.80;99.90;;;;;;5113943;28;20447;-75
2023/09/28 05:37:50;;;;;;;0.40;0.40;;;15.80;99.90;;;;;;5114438;28;20051;-75
2023/09/28 05:40:16;;;;;;;0.40;0.40;;;15.70;99.90;;;;;;5114099;28;20051;-73
2023/09/28 05:42:42;;;;;;;0.60;0.40;;;15.70;99.90;;;;;;5114089;28;20530;-76
2023/09/28 05:45:09;;;;;;;0.50;0.50;;;15.80;99.90;;;;;;5113847;28;20081;-74
2023/09/28 05:47:35;;;;;;;0.47;0.47;;;15.70;99.90;;;;;;5113062;28;20054;-75
2023/09/28 05:50:04;;;;;;;0.50;0.50;;;15.70;99.90;;;;;;5114039;28;20039;-76
2023/09/28 05:52:31;;;;;;;0.60;0.50;;;15.80;99.90;;;;;;5113856;28;20047;-75
2023/09/28 05:54:57;;;;;;;;;;;15.80;99.90;;;;;;5114526;28;20047;-75
2023/09/28 05:57:22;;;;;;;0.50;0.50;;;15.80;99.90;;;;;;5113939;28;19915;-75
2023/09/28 05:59:51;;;;;;;0.40;0.40;;;15.80;99.90;;;;;;5114187;28;20036;-76
2023/09/28 06:02:19;;;;;;;0.30;0.30;;;15.90;99.90;;;;;;5113935;28;20071;-76
2023/09/28 06:04:44;;;;;;;0.40;0.40;;;15.80;99.90;;;;;;5117344;28;20044;-74
2023/09/28 06:07:10;;;;;;;0.40;0.40;;;15.90;99.90;;;;;;5118075;28;20174;-74
2023/09/28 06:09:39;;;;;;;0.60;0.60;;;15.90;99.90;;;;;;5117830;28;20364;-75
2023/09/28 06:12:06;;;;;;;0.55;0.40;;;15.90;99.90;;;;;;5116783;28;20028;-74
2023/09/28 06:14:31;;;;;;;;;;;15.90;99.90;;;;;;5118098;27;20042;-75
2023/09/28 06:16:57;;;;;;;0.60;0.60;;;15.90;99.90;;;;;;5118347;28;19916;-74
2023/09/28 06:19:23;;;;;;;0.57;0.57;;;16.00;99.90;;;;;;5118040;28;20075;-72
2023/09/28 06:21:48;;;;;;;0.57;0.47;;;15.90;99.90;;;;;;5118109;28;20122;-76
2023/09/28 06:24:14;;;;;;;0.40;0.40;;;16.00;99.90;;;;;;5118121;28;20069;-75
2023/09/28 06:26:40;;;;;;;0.40;0.40;;;16.00;99.90;;;;;;5117883;28;20075;-73
2023/09/28 06:29:06;;;;;;;0.30;0.30;;;16.10;99.90;;;;;;5117700;28;20123;-75
2023/09/28 06:31:33;;;;;;;0.40;0.40;;;16.10;99.90;;;;;;5117723;28;20043;-75
2023/09/28 06:33:58;;;;;;;0.30;0.30;;;16.10;99.90;;;;;;5118015;28;20039;-74
2023/09/28 06:36:28;;;;;;;0.30;0.30;;;16.10;99.90;;;;;;5117792;28;20036;-76
2023/09/28 06:38:55;;;;;;;0.40;0.40;;;16.20;99.90;;;;;;5117590;28;20066;-75
2023/09/28 06:41:21;;;;;;;0.50;0.50;;;16.10;99.90;;;;;;5117266;28;20138;-76
2023/09/28 06:43:48;;;;;;;0.30;0.30;;;16.20;99.90;;;;;;5117496;28;20471;-77
2023/09/28 06:46:14;;;;;;;0.30;0.30;;;16.20;99.90;;;;;;5117455;28;20285;-74
2023/09/28 06:48:39;;;;;;;0.70;0.60;;;16.20;99.90;;;;;;5117461;28;20150;-74
2023/09/28 06:51:05;;;;;;;0.50;0.50;;;16.10;99.90;;;;;;5117393;28;20406;-73
2023/09/28 06:53:32;;;;;;;0.50;0.43;;;16.30;99.90;;;;;;5117096;28;20479;-76
2023/09/28 06:56:01;;;;;;;0.60;0.40;;;16.30;99.90;;;;;;5117040;28;20036;-74
2023/09/28 06:58:27;;;;;;;0.40;0.40;;;16.30;99.90;;;;;;5117216;28;20088;-76
2023/09/28 07:00:53;;;;;;;0.40;0.40;;;16.40;99.90;;;;;;5117114;28;20401;-73
2023/09/28 07:03:19;;;;;;;0.40;0.40;;;16.40;99.90;;;;;;5115831;28;20046;-75
2023/09/28 07:05:46;;;;;;;0.52;0.52;;;16.50;99.90;;;;;;5117340;28;20082;-75
2023/09/28 07:08:12;;;;;;;0.57;0.57;;;16.50;99.90;;;;;;5117238;28;20047;-74
2023/09/28 07:10:38;;;;;;;0.30;0.30;;;16.60;99.90;;;;;;5117032;28;20053;-74
2023/09/28 07:13:06;;;;;;;0.32;0.32;;;16.70;99.90;;;;;;5116536;28;20293;-74
2023/09/28 07:15:33;;;;;;;0.45;0.45;;;16.70;99.90;;;;;;5116477;28;20377;-75
2023/09/28 07:17:59;;;;;;;0.50;0.50;;;16.80;99.90;;;;;;5115569;28;20374;-75
2023/09/28 07:20:26;;;;;;;0.30;0.30;;;16.90;99.90;;;;;;5117213;28;20082;-76
2023/09/28 07:22:52;;;;;;;0.30;0.30;;;16.90;99.90;;;;;;5116819;28;20375;-75
2023/09/28 07:25:19;;;;;;;0.40;0.40;;;17.00;99.90;;;;;;5116705;28;20116;-76
2023/09/28 07:27:45;;;;;;;;;;;17.10;99.90;;;;;;5117088;28;20051;-75
2023/09/28 07:30:11;;;;;;;0.40;0.40;;;17.10;99.90;;;;;;5116367;28;19915;-75
2023/09/28 07:32:40;;;;;;;0.45;0.45;;;17.20;99.90;;;;;;5116535;28;20410;-76
2023/09/28 07:35:09;;;;;;;1.85;1.15;;;17.20;99.90;;;;;;5116577;28;20036;-74
2023/09/28 07:37:35;;;;;;;0.57;0.57;;;17.30;99.90;;;;;;5116502;28;20075;-74
2023/09/28 07:40:01;;;;;;;0.50;0.40;;;17.40;99.90;;;;;;5116526;28;20071;-75
2023/09/28 07:42:27;;;;;;;0.73;0.73;;;17.40;99.90;;;;;;5116228;28;20122;-73
2023/09/28 07:44:53;;;;;;;0.70;0.60;;;17.50;99.90;;;;;;5116536;28;20543;-74
2023/09/28 07:47:19;;;;;;;0.20;0.20;;;17.50;99.90;;;;;;5115507;28;20042;-75
2023/09/28 07:49:45;;;;;;;0.43;0.43;;;17.60;99.90;;;;;;5116289;28;20043;-76
2023/09/28 07:52:11;;;;;;;0.32;0.32;;;17.70;99.90;;;;;;5116087;28;20051;-74
2023/09/28 07:54:37;;;;;;;0.37;0.37;;;17.70;99.90;;;;;;5115226;28;20363;-74
2023/09/28 07:57:04;;;;;;;0.30;0.30;;;17.80;99.90;;;;;;5116057;28;20043;-76
2023/09/28 07:59:36;;;;;;;0.20;0.20;;;17.90;99.90;;;;;;5115455;28;20047;-75
2023/09/28 08:02:04;;;;;;;0.40;0.40;;;18.00;99.90;;;;;;5116386;28;20085;-76
2023/09/28 08:04:30;;;;;;;0.40;0.40;;;18.10;99.90;;;;;;5115976;28;20130;-76
2023/09/28 08:06:57;;;;;;;1.30;0.85;;;18.10;99.90;;;;;;5116344;28;20043;-75
2023/09/28 08:09:23;;;;;;;0.60;0.60;;;18.10;99.90;;;;;;5115683;28;20043;-76
2023/09/28 08:11:49;;;;;;;0.35;0.35;;;18.10;99.90;;;;;;5115673;28;20047;-74
2023/09/28 08:14:16;;;;;;;0.73;0.73;;;18.20;99.90;;;;;;5115796;28;20082;-75
2023/09/28 08:16:45;;;;;;;0.45;0.45;;;18.30;99.90;;;;;;5115468;28;20039;-76
2023/09/28 08:19:11;;;;;;;0.30;0.30;;;18.30;99.90;;;;;;5115685;28;20118;-76
2023/09/28 08:21:38;;;;;;;0.50;0.50;;;18.30;99.90;;;;;;5115680;27;20039;-77
2023/09/28 08:24:05;;;;;;;;;;;18.50;99.90;;;;;;5116010;27;20078;-74
2023/09/28 08:26:31;;;;;;;0.35;0.35;;;18.40;99.90;;;;;;5114657;28;19969;-73
2023/09/28 08:29:00;;;;;;;0.52;0.52;;;18.50;99.90;;;;;;5116060;28;20035;-73
2023/09/28 08:31:27;;;;;;;0.40;0.40;;;18.60;99.90;;;;;;5115457;28;20122;-75
2023/09/28 08:33:53;;;;;;;0.63;0.57;;;18.70;99.90;;;;;;5115352;28;20067;-74
2023/09/28 08:36:19;;;;;;;0.40;0.40;;;18.70;99.90;;;;;;5115381;28;20043;-72
2023/09/28 08:38:46;;;;;;;0.40;0.40;;;18.90;99.90;;;;;;5115286;28;20372;-75
2023/09/28 08:41:18;;;;;;;0.32;0.32;;;18.90;99.90;;;;;;5115239;27;20043;-76
2023/09/28 08:43:56;;;;;;;0.30;0.30;;;18.90;99.90;;;;;;5115220;28;20040;-76
2023/09/28 08:46:22;;;;;;;0.43;0.43;;;19.00;99.90;;;;;;5115192;28;20042;-73
2023/09/28 08:48:50;;;;;;;0.85;0.30;;;19.00;99.90;;;;;;5115015;27;20536;-75
2023/09/28 08:51:16;;;;;;;2.08;0.52;;;19.00;99.90;;;;;;5115005;28;20522;-75
2023/09/28 08:53:43;;;;;;;2.58;1.00;;;19.10;99.90;;;;;;5114701;28;20505;-75
2023/09/28 08:56:10;;;;;;;0.20;0.20;;;19.10;99.90;;;;;;5114962;28;20085;-76
2023/09/28 08:58:36;;;;;;;;;;;19.10;99.90;;;;;;5114492;28;20470;-75
2023/09/28 09:01:03;;;;;;;0.40;0.40;;;19.10;99.90;;;;;;5114904;28;20254;-75
2023/09/28 09:03:31;;;;;;;0.82;0.40;;;19.10;99.90;;;;;;5113822;28;20055;-74
2023/09/28 09:05:57;;;;;;;0.30;0.30;;;19.20;99.90;;;;;;5114744;28;20035;-75
2023/09/28 09:08:25;;;;;;;0.40;0.40;;;19.10;99.90;;;;;;5115458;28;20044;-74
2023/09/28 09:10:52;;;;;;;0.50;0.50;;;19.10;99.90;;;;;;5114676;28;20032;-73
2023/09/28 09:13:22;;;;;;;0.32;0.32;;;19.10;99.90;;;;;;5114539;27;20031;-74
2023/09/28 09:15:49;;;;;;;0.30;0.30;;;19.20;99.90;;;;;;5114644;28;20043;-74
2023/09/28 09:18:19;;;;;;;0.30;0.30;;;19.20;99.90;;;;;;5114624;28;20047;-75
2023/09/28 09:20:46;;;;;;;1.20;0.70;;;19.30;99.90;;;;;;5114984;28;20043;-76
2023/09/28 09:23:16;;;;;;;0.28;0.28;;;19.30;99.90;;;;;;5114312;28;20466;-74
2023/09/28 09:25:47;;;;;;;0.75;0.65;;;19.40;99.90;;;;;;5114677;28;20049;-75
2023/09/28 09:28:26;;;;;;;0.75;0.70;;;19.50;99.90;;;;;;5113127;28;20040;-73
2023/09/28 09:30:52;;;;;;;0.95;0.70;;;19.50;99.90;;;;;;5114421;28;20147;-75
2023/09/28 09:33:18;;;;;;;0.30;0.30;;;19.50;99.90;;;;;;5114206;28;20040;-73
2023/09/28 09:35:44;;;;;;;0.33;0.33;;;19.50;99.90;;;;;;5113060;28;20043;-74
2023/09/28 09:38:10;;;;;;;0.30;0.30;;;19.50;99.90;;;;;;5114069;28;20051;-73
2023/09/28 09:40:36;;;;;;;0.40;0.40;;;19.50;99.90;;;;;;5114416;28;20383;-73
2023/09/28 09:43:06;;;;;;;1.70;0.60;;;19.50;99.90;;;;;;5114165;28;20097;-74
2023/09/28 09:45:38;;;;;;;0.40;0.40;;;19.60;99.90;;;;;;5113984;28;20051;-76
2023/09/28 09:48:09;;;;;;;0.50;0.50;;;19.60;99.90;;;;;;5114004;28;20036;-73
2023/09/28 09:50:36;;;;;;;0.52;0.45;;;19.60;99.90;;;;;;5114150;28;20156;-73
2023/09/28 09:53:05;;;;;;;0.30;0.30;;;19.60;99.90;;;;;;5113969;28;20107;-75
2023/09/28 09:55:31;;;;;;;0.40;0.40;;;19.60;99.90;;;;;;5114030;28;20071;-74
2023/09/28 09:58:03;;;;;;;0.30;0.30;;;19.60;99.90;;;;;;5114050;28;20039;-75
2023/09/28 10:00:33;;;;;;;0.20;0.20;;;19.60;99.90;;;;;;5113959;28;20360;-73
2023/09/28 10:03:03;;;;;;;0.60;0.60;;;19.70;99.90;;;;;;5112947;28;20409;-75
2023/09/28 10:05:31;;;;;;;0.88;0.82;;;19.80;99.90;;;;;;5114282;28;20333;-75
2023/09/28 10:07:58;;;;;;;0.30;0.30;;;19.90;99.90;;;;;;5113938;28;20120;-73
2023/09/28 10:10:27;;;;;;;0.40;0.40;;;20.00;99.90;;;;;;5113962;28;20371;-73
2023/09/28 10:12:54;;;;;;;0.35;0.35;;;20.10;99.90;;;;;;5113747;28;20043;-73
2023/09/28 10:15:21;;;;;;;0.55;0.55;;;20.10;99.90;;;;;;5113911;28;20051;-73
2023/09/28 10:17:47;;;;;;;0.45;0.30;;;20.10;99.90;;;;;;5113579;28;20463;-73
2023/09/28 10:20:14;;;;;;;0.30;0.30;;;20.10;99.90;;;;;;5113891;28;20451;-75
2023/09/28 10:22:47;;;;;;;0.85;0.85;;;20.00;99.90;;;;;;5113776;28;20317;-74
2023/09/28 10:25:15;;;;;;;0.28;0.28;;;19.90;99.90;;;;;;5113710;28;20088;-75
2023/09/28 10:27:44;;;;;;;0.30;0.30;;;19.90;99.90;;;;;;5113370;28;20051;-75
2023/09/28 10:30:21;;;;;;;0.30;0.30;;;20.00;99.90;;;;;;5114032;28;20087;-74
2023/09/28 10:32:46;;;;;;;0.43;0.40;;;20.00;99.90;;;;;;5113981;28;20088;-76
2023/09/28 10:35:28;;;;;;;0.93;0.60;;;20.10;99.90;;;;;;5113694;28;20040;-74
2023/09/28 10:38:19;;;;;;;1.38;0.82;;;20.10;99.90;;;;;;5113674;28;20143;-74
2023/09/28 10:41:02;;;;;;;0.20;0.20;;;20.20;99.90;;;;;;5113297;28;20046;-73
2023/09/28 10:43:40;;;;;;;3.42;1.13;;;20.30;99.90;;;;;;5113634;28;20050;-74
2023/09/28 10:46:07;;;;;;;0.40;0.40;;;20.40;99.90;;;;;;5112508;28;20056;-73
2023/09/28 10:48:42;;;;;;;2.28;0.28;;;20.40;99.90;;;;;;5113551;28;20043;-76
2023/09/28 10:51:20;;;;;;;1.00;0.73;;;20.50;99.90;;;;;;5116904;28;20044;-74
2023/09/28 10:53:46;;;;;;;0.40;0.40;;;20.50;99.90;;;;;;5117666;28;20471;-75
2023/09/28 10:56:12;;;;;;;0.40;0.40;;;20.50;99.90;;;;;;5117371;28;20079;-73
2023/09/28 10:58:41;;;;;;;0.40;0.40;;;20.60;99.90;;;;;;5117119;28;20463;-76
2023/09/28 11:01:07;;;;;;;0.90;0.77;;;20.70;99.90;;;;;;5117208;28;20482;-74
2023/09/28 11:03:35;;;;;;;0.30;0.30;;;20.80;99.90;;;;;;5117161;28;20031;-75
2023/09/28 11:06:09;;;;;;;0.30;0.30;;;20.90;99.90;;;;;;5116213;28;20035;-75
2023/09/28 11:08:39;;;;;;;0.52;0.52;;;21.00;99.90;;;;;;5117600;28;20382;-74
2023/09/28 11:11:05;;;;;;;0.98;0.90;;;21.10;99.90;;;;;;5117003;28;20567;-73
2023/09/28 11:13:31;;;;;;;0.33;0.33;;;21.30;99.90;;;;;;5116854;28;20111;-76
2023/09/28 11:15:57;;;;;;;0.30;0.30;;;21.40;99.90;;;;;;5116562;28;20459;-74
2023/09/28 11:18:25;;;;;;;0.52;0.52;;;21.40;99.90;;;;;;5116939;28;20089;-75
2023/09/28 11:20:51;;;;;;;0.52;0.40;;;21.50;99.90;;;;;;5116859;28;20059;-74
2023/09/28 11:23:17;;;;;;;0.40;0.40;;;21.40;99.90;;;;;;5116812;28;20043;-74
2023/09/28 11:25:43;;;;;;;0.30;0.30;;;21.30;99.90;;;;;;5115515;28;20459;-74
2023/09/28 11:28:13;;;;;;;0.20;0.20;;;21.20;99.90;;;;;;5116666;28;20051;-73
2023/09/28 11:30:39;;;;;;;0.38;0.38;;;21.10;99.90;;;;;;5116670;28;20074;-75
2023/09/28 11:33:06;;;;;;;0.40;0.40;;;21.00;99.90;;;;;;5116601;28;20428;-74
2023/09/28 11:35:32;;;;;;;;;;;20.90;99.90;;;;;;5116962;28;20351;-73
2023/09/28 11:38:03;;;;;;;1.10;0.77;;;20.90;99.90;;;;;;5116697;28;19915;-75
2023/09/28 11:40:30;;;;;;;0.20;0.20;;;20.80;99.90;;;;;;5116480;28;20487;-74
2023/09/28 11:43:00;;;;;;;0.40;0.40;;;20.80;99.90;;;;;;5116284;27;20489;-74
2023/09/28 11:45:27;;;;;;;1.08;0.85;;;20.80;99.90;;;;;;5116356;28;20044;-75
2023/09/28 11:47:53;;;;;;;0.57;0.57;;;20.80;99.90;;;;;;5117007;28;20039;-76
2023/09/28 11:50:19;;;;;;;0.40;0.40;;;20.90;99.90;;;;;;5116170;28;20493;-74
2023/09/28 11:52:46;;;;;;;0.20;0.20;;;21.00;99.90;;;;;;5115836;28;20039;-73
2023/09/28 11:55:14;;;;;;;0.65;0.38;;;21.10;99.90;;;;;;5116249;28;20110;-74
2023/09/28 11:57:43;;;;;;;0.52;0.50;;;21.10;99.90;;;;;;5115930;28;20092;-76
2023/09/28 12:00:17;;;;;;;7.53;0.70;;;21.10;99.90;;;;;;5115922;28;20387;-74
2023/09/28 12:02:43;;;;;;;0.68;0.57;;;21.10;99.90;;;;;;5115216;28;20036;-76
2023/09/28 12:05:10;;;;;;;1.33;0.55;;;21.20;99.90;;;;;;5116014;28;20044;-74
2023/09/28 12:07:35;;;;;;;0.43;0.35;;;21.20;99.90;;;;;;5115827;28;20051;-75
2023/09/28 12:10:01;;;;;;;10.20;0.50;;;21.20;99.90;;;;;;5115871;28;20485;-76
2023/09/28 12:12:27;;;;;;;2.00;0.57;;;21.30;99.90;;;;;;5116077;28;20060;-76
2023/09/28 12:14:53;;;;;;;0.30;0.30;;;21.40;99.90;;;;;;5114894;28;20042;-73
2023/09/28 12:17:19;;;;;;;0.30;0.22;;;21.40;99.90;;;;;;5115712;28;20059;-75
2023/09/28 12:19:44;;;;;;;0.40;0.40;;;21.30;99.90;;;;;;5115837;28;20028;-74
2023/09/28 12:22:10;;;;;;;0.27;0.27;;;21.40;99.90;;;;;;5115635;28;20036;-74
2023/09/28 12:24:35;;;;;;;0.30;0.30;;;21.40;99.90;;;;;;5115559;28;20132;-74
2023/09/28 12:27:04;;;;;;;2.23;1.10;;;21.50;99.90;;;;;;5115993;28;20319;-75
2023/09/28 12:29:30;;;;;;;0.95;0.93;;;21.60;99.90;;;;;;5115870;28;20450;-75
2023/09/28 12:31:58;;;;;;;0.30;0.30;;;21.50;99.90;;;;;;5115418;28;20039;-76
2023/09/28 12:34:26;;;;;;;0.30;0.30;;;21.50;99.90;;;;;;5115466;28;20067;-75
2023/09/28 12:36:53;;;;;;;0.40;0.40;;;21.40;99.90;;;;;;5115310;28;20096;-76
2023/09/28 12:39:21;;;;;;;0.40;0.40;;;21.40;99.90;;;;;;5115797;28;20044;-75
2023/09/28 12:41:48;;;;;;;1.17;1.10;;;21.40;99.90;;;;;;5115260;28;20044;-74
2023/09/28 12:44:14;;;;;;;;;;;21.40;99.90;;;;;;5115677;27;20493;-73
2023/09/28 12:46:40;;;;;;;0.52;0.52;;;21.30;99.90;;;;;;5115554;28;19920;-74
2023/09/28 12:49:06;;;;;;;1.30;0.73;;;21.30;99.90;;;;;;5115119;28;20035;-76
2023/09/28 12:51:32;;;;;;;0.73;0.53;;;21.20;99.90;;;;;;5115092;28;20056;-73